Time;durP1;ratioP1;P1;durP2;ratioP2;P2;SDS_P1;SDS_P2;PMS_P1;PMS_P2;Temp;Humidity;BMP_temperature;BMP_pressure;BME280_temperature;BME280_humidity;BME280_pressure;Samples;Min_cycle;Max_cycle;Signal;HPM_P1;HPM_P2
2022/12/05 00:02:21;;;;;;;30.70;17.25;;;7.40;77.70;;;;;;2342977;57;21118;-58
2022/12/05 00:04:48;;;;;;;35.55;17.02;;;7.40;77.60;;;;;;2343254;57;21154;-57
2022/12/05 00:07:15;;;;;;;36.35;17.70;;;7.40;77.60;;;;;;2343755;57;21117;-59
2022/12/05 00:09:43;;;;;;;42.47;19.55;;;7.40;77.60;;;;;;2343120;57;21105;-59
2022/12/05 00:12:10;;;;;;;39.53;19.00;;;7.40;77.60;;;;;;2344605;57;21082;-60
2022/12/05 00:14:37;;;;;;;35.35;18.25;;;7.40;77.60;;;;;;2344724;57;21022;-58
2022/12/05 00:17:04;;;;;;;36.60;18.02;;;7.40;77.70;;;;;;2344335;57;21530;-58
2022/12/05 00:19:31;;;;;;;36.80;19.00;;;7.40;78.30;;;;;;2343279;57;21034;-59
2022/12/05 00:21:59;;;;;;;36.60;17.98;;;7.40;77.70;;;;;;2343340;57;21046;-58
2022/12/05 00:24:26;;;;;;;36.20;18.12;;;7.40;77.40;;;;;;2343014;57;21369;-60
2022/12/05 00:26:53;;;;;;;35.58;18.17;;;7.50;77.80;;;;;;2343689;57;21042;-60
2022/12/05 00:29:20;;;;;;;35.47;18.92;;;7.50;77.80;;;;;;2343414;57;21082;-60
2022/12/05 00:31:47;;;;;;;37.55;19.52;;;7.50;77.80;;;;;;2343125;57;21558;-58
2022/12/05 00:34:15;;;;;;;37.90;20.17;;;7.50;77.80;;;;;;2343697;57;21061;-58
2022/12/05 00:36:42;;;;;;;37.65;17.92;;;7.50;77.70;;;;;;2344265;57;21090;-59
2022/12/05 00:39:11;;;;;;;34.67;17.55;;;7.50;77.70;;;;;;2343793;57;21058;-58
2022/12/05 00:41:39;;;;;;;32.95;16.77;;;7.50;77.70;;;;;;2343534;57;21161;-57
2022/12/05 00:44:06;;;;;;;31.33;17.17;;;7.50;77.70;;;;;;2343135;57;21494;-58
2022/12/05 00:46:34;;;;;;;33.47;16.58;;;7.50;77.70;;;;;;2343714;57;21046;-59
2022/12/05 00:49:04;;;;;;;33.92;17.70;;;7.60;77.80;;;;;;2342798;57;21652;-60
2022/12/05 00:51:33;;;;;;;31.50;17.37;;;7.60;77.80;;;;;;2342257;57;22127;-60
2022/12/05 00:54:02;;;;;;;38.17;19.25;;;7.60;77.80;;;;;;2345026;57;21109;-58
2022/12/05 00:56:31;;;;;;;35.05;18.23;;;7.60;77.60;;;;;;2345251;57;21531;-59
2022/12/05 00:58:59;;;;;;;32.40;16.70;;;7.60;77.50;;;;;;2344961;57;21034;-58
2022/12/05 01:01:31;;;;;;;36.03;17.85;;;7.60;77.50;;;;;;2344448;57;21526;-60
2022/12/05 01:04:00;;;;;;;34.80;17.90;;;7.60;78.20;;;;;;2344076;57;21022;-60
2022/12/05 01:06:28;;;;;;;32.20;17.40;;;7.60;77.50;;;;;;2343752;57;21104;-59
2022/12/05 01:08:56;;;;;;;31.35;16.98;;;7.60;77.50;;;;;;2343389;57;21050;-60
2022/12/05 01:11:25;;;;;;;33.70;17.80;;;7.60;77.60;;;;;;2342970;57;21069;-59
2022/12/05 01:13:53;;;;;;;33.88;17.05;;;7.60;77.60;;;;;;2343072;57;21044;-59
2022/12/05 01:16:23;;;;;;;31.87;17.05;;;7.60;77.70;;;;;;2343492;57;21656;-60
2022/12/05 01:18:50;;;;;;;32.20;17.08;;;7.60;77.70;;;;;;2343194;57;21527;-58
2022/12/05 01:21:17;;;;;;;30.95;16.95;;;7.60;77.80;;;;;;2343416;57;21061;-57
2022/12/05 01:23:44;;;;;;;32.72;16.75;;;7.60;77.80;;;;;;2490176;53;21034;-60
2022/12/05 01:26:13;;;;;;;29.65;15.63;;;7.60;77.90;;;;;;2343163;57;21510;-59
2022/12/05 01:28:41;;;;;;;34.67;17.62;;;7.60;78.00;;;;;;2343075;57;21538;-59
2022/12/05 01:31:18;;;;;;;29.90;16.50;;;7.60;78.00;;;;;;2343326;57;22102;-60
2022/12/05 01:33:45;;;;;;;34.78;17.83;;;7.60;78.00;;;;;;2343351;57;21514;-59
2022/12/05 01:36:13;;;;;;;31.58;16.58;;;7.60;78.10;;;;;;2343285;57;21116;-57
2022/12/05 01:38:41;;;;;;;31.62;17.35;;;7.60;78.00;;;;;;2343448;57;21038;-57
2022/12/05 01:41:11;;;;;;;35.97;18.48;;;7.70;78.10;;;;;;2358767;53;21038;-59
2022/12/05 01:43:54;;;;;;;30.45;16.85;;;7.70;78.20;;;;;;2345847;57;21069;-60
2022/12/05 01:46:22;;;;;;;33.38;18.58;;;7.60;78.20;;;;;;2345910;57;21021;-59
2022/12/05 01:48:51;;;;;;;32.97;19.55;;;7.70;78.30;;;;;;2345814;57;21018;-60
2022/12/05 01:51:18;;;;;;;30.77;17.10;;;7.70;79.40;;;;;;2345629;57;21653;-60
2022/12/05 01:53:45;;;;;;;36.22;18.98;;;7.80;80.00;;;;;;2353826;53;21057;-60
2022/12/05 01:56:13;;;;;;;38.80;19.85;;;7.80;79.40;;;;;;2343387;57;21122;-58
2022/12/05 01:58:43;;;;;;;34.55;17.95;;;7.80;78.80;;;;;;2361570;53;21542;-60
2022/12/05 02:01:12;;;;;;;30.60;16.10;;;7.80;78.30;;;;;;2344449;57;21038;-58
2022/12/05 02:03:41;;;;;;;34.85;17.80;;;7.80;78.10;;;;;;2344047;57;21049;-60
2022/12/05 02:06:09;;;;;;;33.00;18.30;;;7.80;77.90;;;;;;2344067;57;21047;-60
2022/12/05 02:08:37;;;;;;;39.17;20.58;;;7.70;77.80;;;;;;2344242;57;21609;-60
2022/12/05 02:11:07;;;;;;;39.95;20.65;;;7.80;77.90;;;;;;2343541;57;21630;-57
2022/12/05 02:13:51;;;;;;;38.53;19.98;;;7.80;78.00;;;;;;2344746;57;21026;-59
2022/12/05 02:16:28;;;;;;;39.50;19.77;;;7.70;78.10;;;;;;2345097;57;21659;-59
2022/12/05 02:19:08;;;;;;;42.25;20.52;;;7.70;78.00;;;;;;2344915;57;21502;-59
2022/12/05 02:22:04;;;;;;;38.95;19.58;;;7.70;78.10;;;;;;2344176;57;21628;-60
2022/12/05 02:25:10;;;;;;;38.85;20.42;;;7.70;78.20;;;;;;2344279;57;21066;-60
2022/12/05 02:30:18;;;;;;;40.58;20.02;;;7.70;78.10;;;;;;2354949;57;22093;-60
2022/12/05 02:33:07;;;;;;;42.00;22.55;;;7.70;78.30;;;;;;2346952;57;21698;-60
2022/12/05 02:35:49;;;;;;;42.08;20.30;;;7.70;78.40;;;;;;2347042;57;22100;-58
2022/12/05 02:38:25;;;;;;;46.37;22.77;;;7.70;78.30;;;;;;2346032;57;21031;-59
2022/12/05 02:40:59;;;;;;;38.58;20.33;;;7.70;78.40;;;;;;2346508;57;21082;-60
2022/12/05 02:43:34;;;;;;;44.70;21.92;;;7.70;78.50;;;;;;2346390;57;21093;-59
2022/12/05 02:46:07;;;;;;;43.50;21.12;;;7.70;78.60;;;;;;2346854;57;20994;-60
2022/12/05 02:48:35;;;;;;;;;;;7.70;78.70;;;;;;2349471;57;21034;-59
2022/12/05 02:51:04;;;;;;;48.75;22.15;;;7.80;79.20;;;;;;2350402;53;20367;-58
2022/12/05 02:53:34;;;;;;;43.53;21.62;;;7.80;78.20;;;;;;2345807;57;21054;-59
2022/12/05 02:56:02;;;;;;;44.70;22.98;;;7.70;78.60;;;;;;2345243;57;21538;-60
2022/12/05 03:01:05;;;;;;;45.83;26.08;;;7.70;78.80;;;;;;2335336;57;27881;-60
2022/12/05 03:03:34;;;;;;;50.75;24.17;;;7.60;81.10;;;;;;2346688;57;21764;-59
2022/12/05 03:06:05;;;;;;;45.47;22.15;;;7.70;80.50;;;;;;2347641;57;21525;-60
2022/12/05 03:08:39;;;;;;;52.62;25.40;;;7.70;79.80;;;;;;2347276;57;21053;-59
2022/12/05 03:11:07;;;;;;;49.97;23.80;;;7.80;79.40;;;;;;2346012;57;21558;-60
2022/12/05 03:16:19;;;;;;;37.88;21.23;;;7.80;79.00;;;;;;2354634;57;22478;-60
2022/12/05 03:18:50;;;;;;;48.42;23.52;;;7.80;79.00;;;;;;2346402;57;21616;-58
2022/12/05 03:21:26;;;;;;;42.78;20.37;;;7.80;78.90;;;;;;2403934;53;21014;-60
2022/12/05 03:23:59;;;;;;;47.53;22.40;;;7.90;78.90;;;;;;2376153;53;21049;-60
2022/12/05 03:29:30;;;;;;;48.03;26.92;;;7.90;78.90;;;;;;2355164;56;27922;-60
2022/12/05 03:34:49;;;;;;;51.70;23.40;;;7.80;80.10;;;;;;2354707;57;22562;-60
2022/12/05 03:37:33;;;;;;;47.35;23.48;;;7.90;79.40;;;;;;2348335;57;21608;-60
2022/12/05 03:40:08;;;;;;;48.67;23.52;;;7.90;78.90;;;;;;2356656;53;21053;-60
2022/12/05 03:42:39;;;;;;;49.60;23.95;;;7.90;78.80;;;;;;2345332;57;21089;-61
2022/12/05 03:45:10;;;;;;;48.42;22.52;;;7.90;78.70;;;;;;2345561;57;21605;-60
2022/12/05 03:50:18;;;;;;;51.75;22.98;;;7.90;78.70;;;;;;2297999;58;23681;-59
2022/12/05 03:52:49;;;;;;;52.80;24.75;;;7.80;78.60;;;;;;2291311;58;21170;-60
2022/12/05 03:55:17;;;;;;;51.00;23.87;;;7.80;78.60;;;;;;2296911;55;21131;-60
2022/12/05 03:57:51;;;;;;;53.78;24.17;;;7.80;78.70;;;;;;2291341;58;21032;-60
2022/12/05 04:00:21;;;;;;;42.88;21.70;;;7.80;78.70;;;;;;2289841;59;22089;-60
2022/12/05 04:02:53;;;;;;;51.90;22.48;;;7.80;79.40;;;;;;2371674;54;21098;-53
2022/12/05 04:05:25;;;;;;;48.85;20.73;;;7.80;78.70;;;;;;2317992;58;21090;-51
2022/12/05 04:07:57;;;;;;;55.38;24.40;;;7.80;78.50;;;;;;2319757;58;21031;-55
2022/12/05 04:10:28;;;;;;;50.17;23.40;;;7.80;78.50;;;;;;2319231;58;21889;-53
2022/12/05 04:13:16;;;;;;;45.97;22.80;;;7.70;79.30;;;;;;2319299;58;21035;-55
2022/12/05 04:18:35;;;;;;;51.45;24.08;;;7.70;78.70;;;;;;2317940;58;22211;-55
2022/12/05 04:25:31;;;;;;;55.03;24.15;;;7.70;78.80;;;;;;2559559;54;20931;-51
2022/12/05 04:28:09;;;;;;;48.03;21.58;;;7.70;78.80;;;;;;2319276;58;21094;-50
2022/12/05 04:30:40;;;;;;;53.92;23.42;;;7.70;78.40;;;;;;2318482;58;21490;-51
2022/12/05 04:33:14;;;;;;;51.70;23.55;;;7.70;78.60;;;;;;2317247;58;21051;-54
2022/12/05 04:35:49;;;;;;;56.63;23.45;;;7.70;78.70;;;;;;2317701;58;21574;-56
2022/12/05 04:38:22;;;;;;;52.50;21.95;;;7.70;78.70;;;;;;2317822;58;21614;-53
2022/12/05 04:40:54;;;;;;;52.92;23.10;;;7.70;78.70;;;;;;2318233;58;21621;-52
2022/12/05 04:43:23;;;;;;;57.75;25.35;;;7.70;78.80;;;;;;2317835;58;21102;-51
2022/12/05 04:45:53;;;;;;;62.22;24.85;;;7.70;78.70;;;;;;2318658;58;21027;-50
2022/12/05 04:48:24;;;;;;;55.63;23.48;;;7.70;78.80;;;;;;2319138;58;21530;-52
2022/12/05 04:50:54;;;;;;;54.95;22.37;;;7.60;78.70;;;;;;2318553;58;21609;-52
2022/12/05 04:53:23;;;;;;;62.50;24.85;;;7.70;78.80;;;;;;2317531;58;21092;-53
2022/12/05 04:55:54;;;;;;;61.72;22.70;;;7.70;78.80;;;;;;2317815;58;21511;-53
2022/12/05 04:58:24;;;;;;;60.10;24.30;;;7.60;78.70;;;;;;2318113;58;21078;-53
2022/12/05 05:01:00;;;;;;;53.35;23.23;;;7.60;78.70;;;;;;2317684;58;21091;-54
2022/12/05 05:03:33;;;;;;;61.95;23.50;;;7.60;78.70;;;;;;2317334;58;21038;-52
2022/12/05 05:06:01;;;;;;;52.88;23.02;;;7.70;78.70;;;;;;2316792;58;21123;-54
2022/12/05 05:08:29;;;;;;;50.58;20.23;;;7.70;78.70;;;;;;2316977;58;21590;-51
2022/12/05 05:11:10;;;;;;;59.08;23.85;;;7.70;78.70;;;;;;2317104;58;21603;-50
2022/12/05 05:13:37;;;;;;;55.80;24.02;;;7.70;78.80;;;;;;2318407;58;21015;-52
2022/12/05 05:16:05;;;;;;;65.50;24.52;;;7.70;78.60;;;;;;2318317;58;21085;-50
2022/12/05 05:18:33;;;;;;;65.90;26.10;;;7.70;78.50;;;;;;2318348;58;21062;-53
2022/12/05 05:21:00;;;;;;;76.45;28.12;;;7.70;78.50;;;;;;2318140;58;21046;-53
2022/12/05 05:23:27;;;;;;;72.87;26.62;;;7.60;78.50;;;;;;2316694;58;21364;-54
2022/12/05 05:25:55;;;;;;;71.43;25.85;;;7.60;78.40;;;;;;2316730;58;21035;-54
2022/12/05 05:28:23;;;;;;;76.05;27.25;;;7.60;78.40;;;;;;2316887;58;21554;-51
2022/12/05 05:30:50;;;;;;;76.15;27.15;;;7.60;78.40;;;;;;2317386;58;22122;-52
2022/12/05 05:33:17;;;;;;;69.57;25.67;;;7.60;78.50;;;;;;2317022;58;21147;-52
2022/12/05 05:35:44;;;;;;;81.80;27.73;;;7.60;78.40;;;;;;2317689;58;21047;-52
2022/12/05 05:38:11;;;;;;;87.55;28.33;;;7.50;78.30;;;;;;2317938;58;21604;-51
2022/12/05 05:40:38;;;;;;;77.57;28.75;;;7.50;78.40;;;;;;2316785;58;21153;-53
2022/12/05 05:43:05;;;;;;;66.35;26.33;;;7.50;78.40;;;;;;2317029;58;21068;-52
2022/12/05 05:45:32;;;;;;;71.35;27.10;;;7.50;78.60;;;;;;2316530;58;21543;-53
2022/12/05 05:48:00;;;;;;;77.47;27.73;;;7.50;78.60;;;;;;2317554;58;21301;-54
2022/12/05 05:50:27;;;;;;;83.87;26.65;;;7.50;78.50;;;;;;2317473;58;21055;-52
2022/12/05 05:52:55;;;;;;;85.62;28.70;;;7.50;78.40;;;;;;2317383;58;21027;-52
2022/12/05 05:55:22;;;;;;;83.28;29.33;;;7.50;78.40;;;;;;2317115;58;21035;-51
2022/12/05 05:57:49;;;;;;;71.25;26.02;;;7.50;78.40;;;;;;2316863;58;21019;-50
2022/12/05 06:00:18;;;;;;;87.47;28.77;;;7.50;78.40;;;;;;2316618;58;21022;-52
2022/12/05 06:02:45;;;;;;;87.10;28.10;;;7.40;78.40;;;;;;2318261;58;21015;-50
2022/12/05 06:05:12;;;;;;;85.43;28.25;;;7.40;78.40;;;;;;2317946;58;21004;-49
2022/12/05 06:07:39;;;;;;;74.40;28.15;;;7.40;78.30;;;;;;2318075;58;21515;-52
2022/12/05 06:10:08;;;;;;;84.90;30.42;;;7.40;78.30;;;;;;2318018;58;21043;-54
2022/12/05 06:12:35;;;;;;;78.15;29.33;;;7.40;78.30;;;;;;2317017;58;21042;-53
2022/12/05 06:15:03;;;;;;;85.22;28.60;;;7.40;78.30;;;;;;2316536;58;21035;-50
2022/12/05 06:17:30;;;;;;;87.90;29.35;;;7.40;78.20;;;;;;2315851;58;21126;-51
2022/12/05 06:19:57;;;;;;;91.45;29.85;;;7.40;78.20;;;;;;2316530;58;21058;-53
2022/12/05 06:22:25;;;;;;;98.47;31.67;;;7.40;78.30;;;;;;2316296;58;21058;-55
2022/12/05 06:24:52;;;;;;;90.68;30.98;;;7.40;78.20;;;;;;2317288;58;21078;-49
2022/12/05 06:27:19;;;;;;;96.07;31.95;;;7.30;78.10;;;;;;2316869;58;21305;-50
2022/12/05 06:29:46;;;;;;;86.90;27.10;;;7.30;78.10;;;;;;2317972;58;21534;-51
2022/12/05 06:32:13;;;;;;;87.22;27.90;;;7.30;77.90;;;;;;2316550;58;21122;-51
2022/12/05 06:34:40;;;;;;;89.15;29.35;;;7.30;77.80;;;;;;2317099;58;21043;-52
2022/12/05 06:37:08;;;;;;;89.90;32.00;;;7.20;77.60;;;;;;2316699;58;21042;-52
2022/12/05 06:39:35;;;;;;;82.22;28.67;;;7.20;78.40;;;;;;2316758;58;21046;-50
2022/12/05 06:42:02;;;;;;;77.60;28.45;;;7.20;77.70;;;;;;2316305;58;21523;-53
2022/12/05 06:44:29;;;;;;;68.07;25.23;;;7.20;77.60;;;;;;2317117;58;21055;-54
2022/12/05 06:46:56;;;;;;;84.40;27.23;;;7.10;77.70;;;;;;2317417;58;21139;-50
2022/12/05 06:49:25;;;;;;;74.72;27.45;;;7.10;77.70;;;;;;2315015;58;21597;-50
2022/12/05 06:51:52;;;;;;;81.53;28.60;;;7.10;77.60;;;;;;2318202;58;21086;-50
2022/12/05 06:54:20;;;;;;;73.90;27.45;;;7.10;77.50;;;;;;2318425;58;21019;-49
2022/12/05 06:56:47;;;;;;;71.50;24.77;;;7.10;77.50;;;;;;2318206;58;21488;-49
2022/12/05 06:59:15;;;;;;;78.40;26.55;;;7.10;77.50;;;;;;2318623;58;21078;-54
2022/12/05 07:01:42;;;;;;;73.65;26.62;;;7.10;77.30;;;;;;2318317;58;21015;-49
2022/12/05 07:04:14;;;;;;;60.35;24.27;;;7.10;77.30;;;;;;2316821;58;21121;-52
2022/12/05 07:06:43;;;;;;;70.37;25.70;;;7.00;77.20;;;;;;2315879;58;21043;-51
2022/12/05 07:09:11;;;;;;;68.75;27.87;;;7.00;77.20;;;;;;2316738;58;21618;-54
2022/12/05 07:11:38;;;;;;;66.90;25.67;;;7.00;77.20;;;;;;2316840;58;21526;-51
2022/12/05 07:14:08;;;;;;;75.45;25.80;;;7.00;77.20;;;;;;2316756;58;21051;-52
2022/12/05 07:16:36;;;;;;;73.30;26.48;;;7.00;77.20;;;;;;2317042;58;21015;-49
2022/12/05 07:19:03;;;;;;;66.05;25.08;;;7.00;77.10;;;;;;2317471;58;21567;-51
2022/12/05 07:21:30;;;;;;;72.93;27.75;;;7.00;77.00;;;;;;2317826;58;21142;-54
2022/12/05 07:23:57;;;;;;;67.00;24.08;;;7.00;76.90;;;;;;2316960;58;21098;-52
2022/12/05 07:26:24;;;;;;;67.97;24.45;;;7.00;76.90;;;;;;2315951;58;21074;-50
2022/12/05 07:28:54;;;;;;;74.47;26.52;;;6.90;76.90;;;;;;2316876;58;21055;-52
2022/12/05 07:31:22;;;;;;;74.45;24.92;;;6.90;77.00;;;;;;2317337;58;21511;-52
2022/12/05 07:33:50;;;;;;;75.32;27.40;;;6.90;77.10;;;;;;2316964;58;21023;-50
2022/12/05 07:36:19;;;;;;;69.95;24.30;;;6.90;77.10;;;;;;2317169;58;21547;-50
2022/12/05 07:38:47;;;;;;;62.45;22.67;;;6.90;77.10;;;;;;2316606;58;21213;-52
2022/12/05 07:43:51;;;;;;;73.15;24.67;;;6.90;77.10;;;;;;2328230;57;22115;-50
2022/12/05 07:46:19;;;;;;;70.87;24.77;;;6.90;77.00;;;;;;2343707;57;21705;-55
2022/12/05 07:48:47;;;;;;;73.28;28.05;;;6.80;77.00;;;;;;2344576;57;21698;-50
2022/12/05 07:51:18;;;;;;;71.65;24.92;;;6.80;77.00;;;;;;2347862;57;21580;-54
2022/12/05 07:53:45;;;;;;;72.72;24.83;;;6.80;77.10;;;;;;2346741;57;21551;-51
2022/12/05 07:56:15;;;;;;;69.45;24.67;;;6.80;77.10;;;;;;2347075;57;22188;-52
2022/12/05 07:58:44;;;;;;;72.93;27.70;;;6.80;77.20;;;;;;2346923;57;21050;-51
2022/12/05 08:01:14;;;;;;;81.85;26.87;;;6.80;77.10;;;;;;2347183;57;21046;-50
2022/12/05 08:03:42;;;;;;;77.28;26.87;;;6.80;77.00;;;;;;2346057;57;21058;-54
2022/12/05 08:06:11;;;;;;;61.03;24.42;;;6.80;77.00;;;;;;2346460;57;21605;-49
2022/12/05 08:08:39;;;;;;;71.57;24.75;;;6.80;77.00;;;;;;2347386;57;21046;-53
2022/12/05 08:11:09;;;;;;;71.60;25.33;;;6.80;77.10;;;;;;2345350;57;21610;-51
2022/12/05 08:13:36;;;;;;;69.25;24.17;;;6.70;77.00;;;;;;2345994;57;21663;-52
2022/12/05 08:16:06;;;;;;;62.22;24.63;;;6.80;77.20;;;;;;2346864;57;21671;-53
2022/12/05 08:18:33;;;;;;;66.10;25.65;;;6.70;77.40;;;;;;2346225;57;21033;-51
2022/12/05 08:21:05;;;;;;;62.58;24.05;;;6.80;77.40;;;;;;2344729;57;21125;-49
2022/12/05 08:23:33;;;;;;;72.20;26.35;;;6.80;77.30;;;;;;2346746;57;21533;-50
2022/12/05 08:26:04;;;;;;;66.55;23.80;;;6.80;77.20;;;;;;2346843;57;21061;-53
2022/12/05 08:28:33;;;;;;;73.10;25.35;;;6.80;77.30;;;;;;2345838;57;21117;-51
2022/12/05 08:31:05;;;;;;;75.07;25.40;;;6.80;77.20;;;;;;2346572;57;21536;-49
2022/12/05 08:33:32;;;;;;;68.00;25.17;;;6.80;77.20;;;;;;2347878;57;21612;-54
2022/12/05 08:36:01;;;;;;;70.72;25.37;;;6.90;77.80;;;;;;2347737;57;21509;-52
2022/12/05 08:38:28;;;;;;;80.87;28.48;;;6.90;77.20;;;;;;2346353;57;21569;-51
2022/12/05 08:40:55;;;;;;;70.40;24.45;;;6.80;77.10;;;;;;2346344;57;21120;-53
2022/12/05 08:43:22;;;;;;;83.97;28.40;;;6.80;77.20;;;;;;2346753;57;21153;-53
2022/12/05 08:45:51;;;;;;;66.78;23.30;;;6.80;77.00;;;;;;2346850;57;21052;-51
2022/12/05 08:48:18;;;;;;;71.22;25.10;;;6.80;77.20;;;;;;2347002;57;21549;-57
2022/12/05 08:50:45;;;;;;;68.95;25.23;;;6.80;77.20;;;;;;2346883;57;22159;-50
2022/12/05 08:53:13;;;;;;;76.22;26.15;;;6.80;77.30;;;;;;2343848;57;21045;-50
2022/12/05 08:55:40;;;;;;;73.15;25.60;;;6.80;77.30;;;;;;2344180;57;21557;-53
2022/12/05 08:58:08;;;;;;;71.18;26.00;;;6.80;77.50;;;;;;2345056;57;21141;-50
2022/12/05 09:00:35;;;;;;;75.62;26.85;;;6.80;77.30;;;;;;2345996;57;21639;-54
2022/12/05 09:03:02;;;;;;;81.75;27.45;;;6.80;77.30;;;;;;2344454;57;21696;-53
2022/12/05 09:05:29;;;;;;;79.53;26.65;;;6.80;77.30;;;;;;2344302;57;21109;-52
2022/12/05 09:07:58;;;;;;;82.35;28.42;;;6.80;77.30;;;;;;2343944;57;21663;-53
2022/12/05 09:10:25;;;;;;;83.95;26.77;;;6.80;77.30;;;;;;2342872;57;21053;-50
2022/12/05 09:12:52;;;;;;;87.20;26.95;;;6.80;77.30;;;;;;2344886;57;21100;-52
2022/12/05 09:15:19;;;;;;;74.03;25.60;;;6.80;77.30;;;;;;2344723;57;21041;-50
2022/12/05 09:17:46;;;;;;;80.32;24.75;;;6.70;77.40;;;;;;2344989;57;21116;-55
2022/12/05 09:20:14;;;;;;;75.65;25.88;;;6.70;77.30;;;;;;2344697;57;21124;-55
2022/12/05 09:22:41;;;;;;;76.00;25.85;;;6.70;77.40;;;;;;2345850;57;21038;-59
2022/12/05 09:25:09;;;;;;;72.93;24.30;;;6.70;77.50;;;;;;2345567;57;21570;-57
2022/12/05 09:27:37;;;;;;;70.35;24.75;;;6.60;77.60;;;;;;2345953;57;21077;-62
2022/12/05 09:30:07;;;;;;;77.28;25.75;;;6.70;77.60;;;;;;2346723;57;21562;-56
2022/12/05 09:32:34;;;;;;;83.10;26.65;;;6.70;77.60;;;;;;2346566;57;21109;-52
2022/12/05 09:35:01;;;;;;;67.93;24.50;;;6.70;77.60;;;;;;2344804;57;21049;-54
2022/12/05 09:37:28;;;;;;;70.05;25.27;;;6.70;77.60;;;;;;2342571;57;21104;-53
2022/12/05 09:39:55;;;;;;;69.70;25.62;;;6.70;77.60;;;;;;2344785;57;21185;-55
2022/12/05 09:42:41;;;;;;;79.18;25.35;;;6.70;77.70;;;;;;2343681;57;21089;-56
2022/12/05 09:47:59;;;;;;;69.68;24.30;;;6.70;77.60;;;;;;2354239;57;22153;-56
2022/12/05 09:50:28;;;;;;;75.15;26.02;;;6.70;77.60;;;;;;2345065;57;21038;-52
2022/12/05 09:53:04;;;;;;;66.40;23.52;;;6.70;77.50;;;;;;2345838;57;21086;-60
2022/12/05 09:55:38;;;;;;;66.62;24.25;;;6.70;77.30;;;;;;2345374;57;21034;-60
2022/12/05 09:58:20;;;;;;;65.30;21.50;;;6.70;77.30;;;;;;2345727;57;21097;-52
2022/12/05 10:00:48;;;;;;;67.15;25.88;;;6.60;77.30;;;;;;2344814;57;21113;-54
2022/12/05 10:03:25;;;;;;;64.80;25.02;;;6.60;77.30;;;;;;2390616;52;21074;-55
2022/12/05 10:06:01;;;;;;;59.00;22.23;;;6.60;77.50;;;;;;2374646;56;21097;-59
2022/12/05 10:08:35;;;;;;;67.72;23.80;;;6.60;77.50;;;;;;2376315;56;21061;-56
2022/12/05 10:11:09;;;;;;;57.88;22.50;;;6.60;77.60;;;;;;2374382;56;21038;-55
2022/12/05 10:16:20;;;;;;;60.22;22.80;;;6.70;77.60;;;;;;2354992;57;22568;-59
2022/12/05 10:18:52;;;;;;;58.78;22.70;;;6.70;77.40;;;;;;2346941;57;21585;-55
2022/12/05 10:21:23;;;;;;;55.80;22.00;;;6.70;77.40;;;;;;2347018;57;21636;-54
2022/12/05 10:23:55;;;;;;;53.92;22.02;;;6.70;77.40;;;;;;2346439;57;21081;-53
2022/12/05 10:26:24;;;;;;;55.35;22.42;;;6.70;77.40;;;;;;2346930;57;21010;-55
2022/12/05 10:28:55;;;;;;;55.97;20.35;;;6.80;77.50;;;;;;2344564;57;21118;-58
2022/12/05 10:31:27;;;;;;;56.20;22.73;;;6.80;77.40;;;;;;2341012;57;21577;-59
2022/12/05 10:34:02;;;;;;;55.70;21.42;;;6.80;77.30;;;;;;2343196;57;21125;-56
2022/12/05 10:36:31;;;;;;;51.95;21.55;;;6.80;77.20;;;;;;2343896;57;21537;-56
2022/12/05 10:38:59;;;;;;;47.58;20.00;;;6.80;77.10;;;;;;2344601;57;21224;-58
2022/12/05 10:41:27;;;;;;;47.47;20.00;;;6.90;77.10;;;;;;2343579;57;21525;-57
2022/12/05 10:43:57;;;;;;;49.30;20.30;;;6.90;77.10;;;;;;2345640;57;21045;-54
2022/12/05 10:46:24;;;;;;;48.55;21.08;;;6.90;77.10;;;;;;2345673;57;21585;-59
2022/12/05 10:48:52;;;;;;;47.42;20.50;;;6.90;77.70;;;;;;2346329;57;21038;-58
2022/12/05 10:51:26;;;;;;;52.20;21.33;;;6.90;76.80;;;;;;2344836;57;21062;-56
2022/12/05 10:53:53;;;;;;;48.87;21.12;;;6.90;76.70;;;;;;2345301;57;21534;-56
2022/12/05 10:59:39;;;;;;;43.95;19.33;;;6.90;76.70;;;;;;2354230;57;22121;-58
2022/12/05 11:02:21;;;;;;;48.92;20.65;;;6.90;76.50;;;;;;2362091;53;21638;-55
2022/12/05 11:04:48;;;;;;;51.00;19.70;;;7.00;76.60;;;;;;2318428;58;21074;-59
2022/12/05 11:07:28;;;;;;;47.88;20.15;;;7.00;76.50;;;;;;2319500;58;21194;-59
2022/12/05 11:09:55;;;;;;;49.63;21.48;;;6.90;76.40;;;;;;2320200;58;21048;-58
2022/12/05 11:12:24;;;;;;;48.53;19.33;;;7.00;76.40;;;;;;2320126;58;22135;-56
2022/12/05 11:15:06;;;;;;;44.72;20.62;;;7.00;76.40;;;;;;2321210;58;21147;-59
2022/12/05 11:17:35;;;;;;;51.65;20.27;;;7.00;76.50;;;;;;2321161;58;21524;-59
2022/12/05 11:20:32;;;;;;;43.47;19.35;;;7.00;76.40;;;;;;2320140;58;21028;-57
2022/12/05 11:23:17;;;;;;;44.45;18.87;;;7.00;76.40;;;;;;2321133;58;21108;-57
2022/12/05 11:25:44;;;;;;;45.20;19.35;;;7.00;76.30;;;;;;2320342;58;21068;-58
2022/12/05 11:28:32;;;;;;;43.97;19.05;;;7.00;76.30;;;;;;2319684;58;21060;-56
2022/12/05 11:31:01;;;;;;;46.83;19.45;;;7.00;76.30;;;;;;2320051;58;21540;-59
2022/12/05 11:33:30;;;;;;;42.65;18.45;;;7.10;76.30;;;;;;2374296;54;22139;-57
2022/12/05 11:36:04;;;;;;;41.58;17.85;;;7.10;76.40;;;;;;2319836;58;21598;-57
2022/12/05 11:38:33;;;;;;;42.13;17.98;;;7.10;76.50;;;;;;2319545;58;21167;-56
2022/12/05 11:41:20;;;;;;;42.58;19.37;;;7.10;76.40;;;;;;2320471;58;21068;-56
2022/12/05 11:44:06;;;;;;;42.72;18.85;;;7.10;76.30;;;;;;2320916;58;21547;-56
2022/12/05 11:46:45;;;;;;;44.25;18.73;;;7.10;76.20;;;;;;2320219;58;21106;-57
2022/12/05 11:49:26;;;;;;;42.65;19.08;;;7.20;76.10;;;;;;2320167;58;21590;-55
2022/12/05 11:54:54;;;;;;;40.53;19.45;;;7.20;76.10;;;;;;2354754;57;22754;-59
2022/12/05 11:57:38;;;;;;;41.80;19.50;;;7.20;76.20;;;;;;2346709;57;21041;-55
2022/12/05 12:00:17;;;;;;;39.97;16.52;;;7.20;76.20;;;;;;2347112;57;21523;-57
2022/12/05 12:03:03;;;;;;;36.28;16.92;;;7.20;76.10;;;;;;2348060;57;21505;-56
2022/12/05 12:05:37;;;;;;;35.63;17.00;;;7.20;76.10;;;;;;2348304;57;21029;-54
2022/12/05 12:08:14;;;;;;;33.47;17.23;;;7.20;76.10;;;;;;2348478;57;21573;-55
2022/12/05 12:10:51;;;;;;;35.05;16.60;;;7.20;76.10;;;;;;2347379;57;21025;-54
2022/12/05 12:13:31;;;;;;;33.03;17.33;;;7.20;76.00;;;;;;2346289;57;21097;-55
2022/12/05 12:16:05;;;;;;;33.78;16.62;;;7.20;76.00;;;;;;2346968;57;21057;-53
2022/12/05 12:18:51;;;;;;;32.88;15.55;;;7.20;76.00;;;;;;2347216;57;21037;-56
2022/12/05 12:21:21;;;;;;;33.60;15.52;;;7.30;76.20;;;;;;2347195;57;21042;-54
2022/12/05 12:24:04;;;;;;;27.55;14.50;;;7.30;76.10;;;;;;2346968;57;21625;-55
2022/12/05 12:26:44;;;;;;;34.70;15.70;;;7.30;76.30;;;;;;2347260;57;21030;-55
2022/12/05 12:29:24;;;;;;;33.50;16.23;;;7.30;76.20;;;;;;2346478;57;21085;-58
2022/12/05 12:32:06;;;;;;;36.67;17.20;;;7.30;75.90;;;;;;2346811;57;21077;-57
2022/12/05 12:34:55;;;;;;;35.28;16.65;;;7.30;75.70;;;;;;2347119;57;21038;-52
2022/12/05 12:37:31;;;;;;;34.92;15.82;;;7.30;75.70;;;;;;2347237;57;21537;-57
2022/12/05 12:40:11;;;;;;;34.33;17.30;;;7.30;75.60;;;;;;2346755;57;21093;-57
2022/12/05 12:42:48;;;;;;;33.95;16.60;;;7.30;75.60;;;;;;2346746;57;21672;-54
2022/12/05 12:48:17;;;;;;;33.25;15.18;;;7.30;75.50;;;;;;2355668;57;22013;-57
2022/12/05 12:50:49;;;;;;;28.38;14.00;;;7.30;75.70;;;;;;2346809;57;21568;-57
2022/12/05 12:54:00;;;;;;;31.55;15.63;;;7.30;75.90;;;;;;2360835;56;21493;-56
2022/12/05 12:56:37;;;;;;;33.80;15.40;;;7.30;76.00;;;;;;2358256;56;21067;-58
2022/12/05 12:59:29;;;;;;;31.08;14.50;;;7.30;75.60;;;;;;2375634;56;21497;-58
2022/12/05 13:02:02;;;;;;;32.65;15.93;;;7.30;75.70;;;;;;2375320;56;21023;-55
2022/12/05 13:04:39;;;;;;;32.25;16.23;;;7.30;75.60;;;;;;2374338;56;21048;-58
2022/12/05 13:07:11;;;;;;;33.78;15.98;;;7.30;75.60;;;;;;2374338;56;21059;-56
2022/12/05 13:09:44;;;;;;;33.50;15.65;;;7.30;75.60;;;;;;2374437;56;21039;-58
2022/12/05 13:12:14;;;;;;;31.77;14.27;;;7.30;75.80;;;;;;2374370;56;21544;-58
2022/12/05 13:17:23;;;;;;;31.17;15.10;;;7.40;75.90;;;;;;2355753;57;22033;-56
2022/12/05 13:19:53;;;;;;;32.17;15.40;;;7.30;75.70;;;;;;2346822;57;21533;-56
2022/12/05 13:22:23;;;;;;;28.05;14.07;;;7.40;75.90;;;;;;2347626;57;21058;-57
2022/12/05 13:24:51;;;;;;;29.73;14.75;;;7.40;76.00;;;;;;2343949;57;21049;-57
2022/12/05 13:27:21;;;;;;;30.25;15.05;;;7.40;76.00;;;;;;2344942;57;21581;-54
2022/12/05 13:29:52;;;;;;;27.23;14.13;;;7.40;76.00;;;;;;2345493;57;21581;-55
2022/12/05 13:32:31;;;;;;;28.40;15.23;;;7.40;75.90;;;;;;2345680;57;21596;-57
2022/12/05 13:35:00;;;;;;;33.58;15.98;;;7.40;76.00;;;;;;2345109;57;21125;-56
2022/12/05 13:43:10;;;;;;;27.30;13.00;;;7.40;75.60;;;;;;2594212;53;21489;-58
2022/12/05 13:45:38;;;;;;;30.12;13.98;;;7.40;75.60;;;;;;2346859;57;21030;-54
2022/12/05 13:48:19;;;;;;;26.40;14.87;;;7.40;75.50;;;;;;2346833;57;21017;-55